createdAt,value
2023-04-11T00:02:26.072Z,3.10
2023-04-11T00:05:11.770Z,3.03
2023-04-11T00:07:57.161Z,2.70
2023-04-11T00:10:44.220Z,2.80
2023-04-11T00:13:30.755Z,3.20
2023-04-11T00:16:16.858Z,3.43
2023-04-11T00:19:02.298Z,3.13
2023-04-11T00:21:47.642Z,3.37
2023-04-11T00:24:32.794Z,2.93
2023-04-11T00:27:19.474Z,3.10
2023-04-11T00:30:07.886Z,3.37
2023-04-11T00:32:52.862Z,2.90
2023-04-11T00:35:39.533Z,3.30
2023-04-11T00:38:24.990Z,3.00
2023-04-11T00:41:10.910Z,2.83
2023-04-11T00:43:57.555Z,3.27
2023-04-11T00:46:46.291Z,3.00
2023-04-11T00:49:31.987Z,3.23
2023-04-11T00:52:17.378Z,3.47
2023-04-11T00:55:03.716Z,2.80
2023-04-11T00:57:49.420Z,2.87
2023-04-11T01:00:36.107Z,3.03
2023-04-11T01:03:24.464Z,2.70
2023-04-11T01:06:13.061Z,2.57
2023-04-11T01:08:58.445Z,2.97
2023-04-11T01:11:43.585Z,2.87
2023-04-11T01:14:28.845Z,3.00
2023-04-11T01:17:15.551Z,3.00
2023-04-11T01:20:01.454Z,3.20
2023-04-11T01:22:49.276Z,2.80
2023-04-11T01:25:34.232Z,2.73
2023-04-11T01:28:20.303Z,3.00
2023-04-11T01:31:06.008Z,2.70
2023-04-11T01:33:51.218Z,3.10
2023-04-11T01:36:36.894Z,3.10
2023-04-11T01:39:22.355Z,2.50
2023-04-11T01:42:09.423Z,2.70
2023-04-11T01:44:55.381Z,2.93
2023-04-11T01:47:40.849Z,2.93
2023-04-11T01:50:26.300Z,3.20
2023-04-11T01:53:11.598Z,3.20
2023-04-11T01:55:56.726Z,2.43
2023-04-11T01:58:42.243Z,3.00
2023-04-11T02:01:28.224Z,3.10
2023-04-11T02:04:13.478Z,3.03
2023-04-11T02:06:59.752Z,2.90
2023-04-11T02:09:45.129Z,2.57
2023-04-11T02:12:30.293Z,2.90
2023-04-11T02:15:15.688Z,2.80
2023-04-11T02:18:01.857Z,3.00
2023-04-11T02:20:47.750Z,3.10
2023-04-11T02:23:33.926Z,2.87
2023-04-11T02:26:19.115Z,2.50
2023-04-11T02:29:04.600Z,3.07
2023-04-11T02:31:49.824Z,2.63
2023-04-11T02:34:35.857Z,3.10
2023-04-11T02:37:21.116Z,2.73
2023-04-11T02:40:08.011Z,2.90
2023-04-11T02:42:56.676Z,3.00
2023-04-11T02:45:41.897Z,2.90
2023-04-11T02:48:28.240Z,2.50
2023-04-11T02:51:13.837Z,2.83
2023-04-11T02:53:59.159Z,3.00
2023-04-11T02:56:44.928Z,2.60
2023-04-11T02:59:30.633Z,2.90
2023-04-11T03:02:17.935Z,2.60
2023-04-11T03:05:04.200Z,3.00
2023-04-11T03:07:53.422Z,2.67
2023-04-11T03:10:38.626Z,2.83
2023-04-11T03:13:26.632Z,2.37
2023-04-11T03:16:13.886Z,2.53
2023-04-11T03:18:59.748Z,2.80
2023-04-11T03:21:45.209Z,3.07
2023-04-11T03:24:32.279Z,2.80
2023-04-11T03:27:17.629Z,2.70
2023-04-11T03:30:06.350Z,2.77
2023-04-11T03:33:00.916Z,3.00
2023-04-11T03:35:47.540Z,2.83
2023-04-11T03:38:32.873Z,2.80
2023-04-11T03:41:19.497Z,2.87
2023-04-11T03:44:05.256Z,2.90
2023-04-11T03:46:50.559Z,2.80
2023-04-11T03:49:36.650Z,2.57
2023-04-11T03:52:22.679Z,2.77
2023-04-11T03:55:09.367Z,2.53
2023-04-11T03:57:54.928Z,3.00
2023-04-11T04:00:40.669Z,2.90
2023-04-11T04:03:28.907Z,2.30
2023-04-11T04:06:15.464Z,2.57
2023-04-11T04:09:01.015Z,2.40
2023-04-11T04:11:55.101Z,2.97
2023-04-11T04:14:50.195Z,2.40
2023-04-11T04:17:36.421Z,2.77
2023-04-11T04:20:26.502Z,2.93
2023-04-11T04:23:18.177Z,2.57
2023-04-11T04:26:31.380Z,2.40
2023-04-11T04:29:34.158Z,2.57
2023-04-11T04:32:23.086Z,2.57
2023-04-11T04:35:14.150Z,2.50
2023-04-11T04:38:06.159Z,2.90
2023-04-11T04:41:06.036Z,2.73
2023-04-11T04:43:57.952Z,2.57
2023-04-11T04:46:56.928Z,2.80
2023-04-11T04:49:46.163Z,2.50
2023-04-11T04:52:31.734Z,2.60
2023-04-11T04:55:17.121Z,2.50
2023-04-11T04:58:02.422Z,2.40
2023-04-11T05:00:50.798Z,2.77
2023-04-11T05:03:40.473Z,2.93
2023-04-11T05:06:32.444Z,2.40
2023-04-11T05:09:19.817Z,2.67
2023-04-11T05:12:07.558Z,2.27
2023-04-11T05:14:56.840Z,2.23
2023-04-11T05:17:43.385Z,2.50
2023-04-11T05:20:29.800Z,2.57
2023-04-11T05:23:16.520Z,2.57
2023-04-11T05:26:02.027Z,3.10
2023-04-11T05:28:48.962Z,2.70
2023-04-11T05:31:38.736Z,2.20
2023-04-11T05:34:24.354Z,2.47
2023-04-11T05:37:09.568Z,2.40
2023-04-11T05:39:56.267Z,2.50
2023-04-11T05:42:42.461Z,2.67
2023-04-11T05:45:27.914Z,2.93
2023-04-11T05:48:19.543Z,2.73
2023-04-11T05:51:06.128Z,2.80
2023-04-11T05:53:52.244Z,2.73
2023-04-11T05:56:39.694Z,2.40
2023-04-11T05:59:27.107Z,2.67
2023-04-11T06:02:14.141Z,2.60
2023-04-11T06:04:59.723Z,2.90
2023-04-11T06:07:45.333Z,2.73
2023-04-11T06:10:31.140Z,2.60
2023-04-11T06:13:16.364Z,2.77
2023-04-11T06:16:01.862Z,2.57
2023-04-11T06:18:46.998Z,3.03
2023-04-11T06:21:32.227Z,2.47
2023-04-11T06:24:20.627Z,2.80
2023-04-11T06:27:06.501Z,2.43
2023-04-11T06:29:51.393Z,2.80
2023-04-11T06:32:36.738Z,2.93
2023-04-11T06:35:24.819Z,2.60
2023-04-11T06:38:10.166Z,2.43
2023-04-11T06:40:56.409Z,2.60
2023-04-11T06:43:41.900Z,2.30
2023-04-11T06:46:27.142Z,2.30
2023-04-11T06:49:12.370Z,2.10
2023-04-11T06:51:57.573Z,2.10
2023-04-11T06:54:42.869Z,2.70
2023-04-11T06:57:28.346Z,2.77
2023-04-11T07:00:14.066Z,2.70
2023-04-11T07:03:01.148Z,2.03
2023-04-11T07:05:46.978Z,2.90
2023-04-11T07:08:31.883Z,3.73
2023-04-11T07:11:18.574Z,3.20
2023-04-11T07:14:05.210Z,3.00
2023-04-11T07:16:50.553Z,3.20
2023-04-11T07:19:35.970Z,3.93
2023-04-11T07:22:21.775Z,4.30
2023-04-11T07:25:07.451Z,4.00
2023-04-11T07:27:53.214Z,3.03
2023-04-11T07:30:38.723Z,2.63
2023-04-11T07:33:24.012Z,2.63
2023-04-11T07:36:09.436Z,2.37
2023-04-11T07:38:55.090Z,2.53
2023-04-11T07:41:40.407Z,3.00
2023-04-11T07:44:27.342Z,2.67
2023-04-11T07:47:12.913Z,2.80
2023-04-11T07:49:58.762Z,2.60
2023-04-11T07:52:44.260Z,2.27
2023-04-11T07:55:30.214Z,2.70
2023-04-11T07:58:16.074Z,3.80
2023-04-11T08:01:02.650Z,4.87
2023-04-11T08:03:48.700Z,6.37
2023-04-11T08:06:34.907Z,3.77
2023-04-11T08:09:20.724Z,3.90
2023-04-11T08:12:06.210Z,2.30
2023-04-11T08:14:51.512Z,2.57
2023-04-11T08:17:38.586Z,2.60
2023-04-11T08:20:24.597Z,2.70
2023-04-11T08:23:10.511Z,2.90
2023-04-11T08:25:56.646Z,2.00
2023-04-11T08:28:43.053Z,2.57
2023-04-11T08:31:29.031Z,3.10
2023-04-11T08:34:14.550Z,3.57
2023-04-11T08:36:59.501Z,3.53
2023-04-11T08:39:44.662Z,2.23
2023-04-11T08:42:31.040Z,2.10
2023-04-11T08:45:16.225Z,1.97
2023-04-11T08:48:01.117Z,2.27
2023-04-11T08:50:46.604Z,2.57
2023-04-11T08:53:35.735Z,2.23
2023-04-11T08:56:20.732Z,2.00
2023-04-11T08:59:06.078Z,2.63
2023-04-11T09:01:51.931Z,4.20
2023-04-11T09:04:41.379Z,2.10
2023-04-11T09:07:26.813Z,1.90
2023-04-11T09:10:20.001Z,2.10
2023-04-11T09:13:28.821Z,1.83
2023-04-11T09:16:18.999Z,1.93
2023-04-11T09:19:25.454Z,1.90
2023-04-11T09:22:14.219Z,3.50
2023-04-11T09:25:07.060Z,2.07
2023-04-11T09:28:11.438Z,1.80
2023-04-11T09:35:52.477Z,1.90
2023-04-11T09:38:37.564Z,1.70
2023-04-11T09:41:34.193Z,2.33
2023-04-11T09:44:19.358Z,3.23
2023-04-11T09:47:04.964Z,1.73
2023-04-11T09:49:50.362Z,2.03
2023-04-11T09:52:36.212Z,1.80
2023-04-11T09:55:23.533Z,1.57
2023-04-11T09:58:11.175Z,1.97
2023-04-11T10:00:59.131Z,2.57
2023-04-11T10:03:45.770Z,1.70
2023-04-11T10:06:38.892Z,1.70
2023-04-11T10:09:24.162Z,1.97
2023-04-11T10:12:09.518Z,1.60
2023-04-11T10:14:56.580Z,2.57
2023-04-11T10:17:42.398Z,1.93
2023-04-11T10:20:40.407Z,1.40
2023-04-11T10:23:25.782Z,1.80
2023-04-11T10:26:11.197Z,1.53
2023-04-11T10:28:56.574Z,1.70
2023-04-11T10:32:11.968Z,1.80
2023-04-11T10:34:57.656Z,1.63
2023-04-11T10:37:43.061Z,1.53
2023-04-11T10:40:30.777Z,1.70
2023-04-11T10:43:20.766Z,2.30
2023-04-11T10:46:25.238Z,2.17
2023-04-11T10:49:10.759Z,1.60
2023-04-11T10:52:16.560Z,1.73
2023-04-11T10:55:16.993Z,1.17
2023-04-11T10:58:14.073Z,1.60
2023-04-11T11:01:00.087Z,1.40
2023-04-11T11:03:53.182Z,1.67
2023-04-11T11:06:47.249Z,3.97
2023-04-11T11:09:36.626Z,1.30
2023-04-11T11:12:21.703Z,1.30
2023-04-11T11:15:13.429Z,1.57
2023-04-11T11:17:58.633Z,2.00
2023-04-11T11:20:43.851Z,1.60
2023-04-11T11:23:29.368Z,2.23
2023-04-11T11:26:14.681Z,2.53
2023-04-11T11:28:59.936Z,1.20
2023-04-11T11:31:47.660Z,1.40
2023-04-11T11:34:34.490Z,1.67
2023-04-11T11:37:19.678Z,1.60
2023-04-11T11:40:09.318Z,1.40
2023-04-11T11:42:54.253Z,1.50
2023-04-11T11:45:39.577Z,1.40
2023-04-11T11:48:25.093Z,2.60
2023-04-11T11:51:10.198Z,1.50
2023-04-11T11:54:08.712Z,1.47
2023-04-11T11:56:54.179Z,1.60
2023-04-11T11:59:39.262Z,1.40
2023-04-11T12:02:26.103Z,1.17
2023-04-11T12:05:12.336Z,1.03
2023-04-11T12:07:59.842Z,1.60
2023-04-11T12:10:50.185Z,1.40
2023-04-11T12:13:36.293Z,1.00
2023-04-11T12:16:23.561Z,1.33
2023-04-11T12:19:08.687Z,1.60
2023-04-11T12:21:53.608Z,1.00
2023-04-11T12:24:38.626Z,1.40
2023-04-11T12:27:23.716Z,1.70
2023-04-11T12:30:10.599Z,1.40
2023-04-11T12:32:56.186Z,1.03
2023-04-11T12:35:41.862Z,1.50
2023-04-11T12:38:27.338Z,1.17
2023-04-11T12:41:30.763Z,0.93
2023-04-11T12:44:17.629Z,1.40
2023-04-11T12:47:02.966Z,1.00
2023-04-11T12:49:48.255Z,1.27
2023-04-11T12:52:34.375Z,1.30
2023-04-11T12:55:19.686Z,1.17
2023-04-11T12:58:04.823Z,1.20
2023-04-11T13:00:50.305Z,1.10
2023-04-11T13:03:35.598Z,1.23
2023-04-11T13:06:21.018Z,1.27
2023-04-11T13:09:07.558Z,1.17
2023-04-11T13:11:52.776Z,1.27
2023-04-11T13:14:37.777Z,1.00
2023-04-11T13:17:23.247Z,0.97
2023-04-11T13:20:10.405Z,1.37
2023-04-11T13:22:55.930Z,1.17
2023-04-11T13:25:41.114Z,1.50
2023-04-11T13:28:27.422Z,1.03
2023-04-11T13:31:14.130Z,1.30
2023-04-11T13:34:00.001Z,1.33
2023-04-11T13:36:46.208Z,1.40
2023-04-11T13:39:31.568Z,1.40
2023-04-11T13:42:16.872Z,1.17
2023-04-11T13:45:02.377Z,1.20
2023-04-11T13:47:47.510Z,1.50
2023-04-11T13:50:34.273Z,1.10
2023-04-11T13:53:19.252Z,0.80
2023-04-11T13:56:05.344Z,1.47
2023-04-11T13:58:50.825Z,0.90
2023-04-11T14:01:36.145Z,1.00
2023-04-11T14:04:22.258Z,0.90
2023-04-11T14:07:07.591Z,1.50
2023-04-11T14:09:52.992Z,0.80
2023-04-11T14:12:38.109Z,1.10
2023-04-11T14:15:23.564Z,1.80
2023-04-11T14:18:08.911Z,0.63
2023-04-11T14:20:56.521Z,0.90
2023-04-11T14:23:41.750Z,1.00
2023-04-11T14:26:26.885Z,0.67
2023-04-11T14:29:12.383Z,1.03
2023-04-11T14:31:57.945Z,1.47
2023-04-11T14:34:43.349Z,1.43
2023-04-11T14:37:28.374Z,0.90
2023-04-11T14:40:13.644Z,0.97
2023-04-11T14:42:59.269Z,1.53
2023-04-11T14:45:44.763Z,1.03
2023-04-11T14:48:29.930Z,0.87
2023-04-11T14:51:15.249Z,2.00
2023-04-11T14:54:01.304Z,1.13
2023-04-11T14:56:49.810Z,0.80
2023-04-11T14:59:44.364Z,1.03
2023-04-11T15:02:31.099Z,1.80
2023-04-11T15:06:08.311Z,4.47
2023-04-11T15:08:58.029Z,1.57
2023-04-11T15:11:53.916Z,4.43
2023-04-11T15:14:42.193Z,2.03
2023-04-11T15:17:40.348Z,5.00
2023-04-11T15:20:25.851Z,1.20
2023-04-11T15:23:13.617Z,0.93
2023-04-11T15:26:05.627Z,0.73
2023-04-11T15:28:51.443Z,1.00
2023-04-11T15:31:38.798Z,1.60
2023-04-11T15:34:25.091Z,0.90
2023-04-11T15:37:17.284Z,2.17
2023-04-11T15:40:06.907Z,1.17
2023-04-11T15:42:54.971Z,2.50
2023-04-11T15:45:46.017Z,1.67
2023-04-11T15:49:00.027Z,1.20
2023-04-11T15:51:53.154Z,2.43
2023-04-11T15:54:59.362Z,1.50
2023-04-11T15:57:45.067Z,1.77
2023-04-11T16:00:30.684Z,1.40
2023-04-11T16:03:16.645Z,3.67
2023-04-11T16:06:02.733Z,3.27
2023-04-11T16:08:48.364Z,1.10
2023-04-11T16:11:33.615Z,1.40
2023-04-11T16:14:19.128Z,3.43
2023-04-11T16:17:05.901Z,2.00
2023-04-11T16:19:52.363Z,2.73
2023-04-11T16:22:40.618Z,1.47
2023-04-11T16:25:26.897Z,2.80
2023-04-11T16:28:21.438Z,1.17
2023-04-11T16:31:07.314Z,2.03
2023-04-11T16:33:53.402Z,1.50
2023-04-11T16:36:38.866Z,1.90
2023-04-11T16:39:28.269Z,1.40
2023-04-11T16:43:05.401Z,3.13
2023-04-11T16:45:29.763Z,2.67
2023-04-11T16:48:55.389Z,1.40
2023-04-11T16:51:52.346Z,3.00
2023-04-11T16:54:37.896Z,2.20
2023-04-11T16:57:24.379Z,1.40
2023-04-11T17:00:16.420Z,1.87
2023-04-11T17:03:01.977Z,1.90
2023-04-11T17:05:47.872Z,3.63
2023-04-11T17:08:33.577Z,2.80
2023-04-11T17:11:20.552Z,4.30
2023-04-11T17:14:05.967Z,2.67
2023-04-11T17:16:51.616Z,5.00
2023-04-11T17:19:37.233Z,2.47
2023-04-11T17:22:22.496Z,3.47
2023-04-11T17:25:09.338Z,3.23
2023-04-11T17:27:54.988Z,5.10
2023-04-11T17:30:40.255Z,6.43
2023-04-11T17:33:25.414Z,6.13
2023-04-11T17:36:12.737Z,4.63
2023-04-11T17:38:58.792Z,4.40
2023-04-11T17:41:47.897Z,3.67
2023-04-11T17:44:33.316Z,9.17
2023-04-11T17:47:18.577Z,5.93
2023-04-11T17:50:11.056Z,5.47
2023-04-11T17:52:56.432Z,3.67
2023-04-11T17:55:41.742Z,2.80
2023-04-11T17:58:27.845Z,3.80
2023-04-11T18:01:13.209Z,6.97
2023-04-11T18:04:02.265Z,6.03
2023-04-11T18:06:48.250Z,7.10
2023-04-11T18:09:37.883Z,5.03
2023-04-11T18:12:29.455Z,4.60
2023-04-11T18:15:16.027Z,3.30
2023-04-11T18:18:06.159Z,5.37
2023-04-11T18:21:16.483Z,3.83
2023-04-11T18:24:03.144Z,6.40
2023-04-11T18:26:48.422Z,5.87
2023-04-11T18:29:33.489Z,3.93
2023-04-11T18:32:19.040Z,5.83
2023-04-11T18:35:07.137Z,7.97
2023-04-11T18:37:53.332Z,7.80
2023-04-11T18:40:39.764Z,5.53
2023-04-11T18:43:25.338Z,3.90
2023-04-11T18:46:10.127Z,8.43
2023-04-11T18:48:55.723Z,3.53
2023-04-11T18:51:41.915Z,5.07
2023-04-11T18:54:27.481Z,6.33
2023-04-11T18:57:14.820Z,8.57
2023-04-11T19:00:11.307Z,6.73
2023-04-11T19:02:58.413Z,5.20
2023-04-11T19:05:45.370Z,5.07
2023-04-11T19:08:30.957Z,3.90
2023-04-11T19:11:16.274Z,4.27
2023-04-11T19:14:03.545Z,4.50
2023-04-11T19:16:48.924Z,3.90
2023-04-11T19:19:35.815Z,5.17
2023-04-11T19:22:22.180Z,3.83
2023-04-11T19:25:13.137Z,4.33
2023-04-11T19:27:57.968Z,4.37
2023-04-11T19:30:42.991Z,3.30
2023-04-11T19:33:29.247Z,4.77
2023-04-11T19:36:15.624Z,3.20
2023-04-11T19:39:00.827Z,4.50
2023-04-11T19:41:48.518Z,4.37
2023-04-11T19:44:33.255Z,5.33
2023-04-11T19:47:19.637Z,3.07
2023-04-11T19:50:06.626Z,3.87
2023-04-11T19:52:56.765Z,3.80
2023-04-11T19:55:41.848Z,3.97
2023-04-11T19:58:28.593Z,4.47
2023-04-11T20:01:15.757Z,4.23
2023-04-11T20:04:02.341Z,3.70
2023-04-11T20:06:50.600Z,4.87
2023-04-11T20:09:37.511Z,3.47
2023-04-11T20:12:26.991Z,3.57
2023-04-11T20:15:19.178Z,4.17
2023-04-11T20:18:12.841Z,4.47
2023-04-11T20:21:09.026Z,6.33
2023-04-11T20:23:59.107Z,4.00
2023-04-11T20:26:49.033Z,3.83
2023-04-11T20:29:34.929Z,2.97
2023-04-11T20:32:25.481Z,3.80
2023-04-11T20:35:14.586Z,4.03
2023-04-11T20:38:17.220Z,2.97
2023-04-11T20:41:07.007Z,3.10
2023-04-11T20:43:55.241Z,4.70
2023-04-11T20:46:43.803Z,3.40
2023-04-11T20:49:37.821Z,3.63
2023-04-11T20:52:25.012Z,3.50
2023-04-11T20:55:16.091Z,3.27
2023-04-11T20:58:01.604Z,3.00
2023-04-11T21:00:47.570Z,3.67
2023-04-11T21:03:37.540Z,2.93
2023-04-11T21:06:22.828Z,4.23
2023-04-11T21:09:07.882Z,3.47
2023-04-11T21:11:52.860Z,2.90
2023-04-11T21:14:37.768Z,4.63
2023-04-11T21:17:22.734Z,2.83
2023-04-11T21:20:10.302Z,5.07
2023-04-11T21:22:55.437Z,2.83
2023-04-11T21:25:40.631Z,4.30
2023-04-11T21:28:25.766Z,2.90
2023-04-11T21:31:10.969Z,4.03
2023-04-11T21:33:56.599Z,3.00
2023-04-11T21:36:42.298Z,3.13
2023-04-11T21:39:27.364Z,2.97
2023-04-11T21:42:12.288Z,2.60
2023-04-11T21:44:57.280Z,2.90
2023-04-11T21:47:42.686Z,3.00
2023-04-11T21:50:27.789Z,3.00
2023-04-11T21:53:13.973Z,3.10
2023-04-11T21:55:59.130Z,2.70
2023-04-11T21:58:43.949Z,2.67
2023-04-11T22:01:29.292Z,2.80
2023-04-11T22:04:17.486Z,3.37
2023-04-11T22:07:02.592Z,2.67
2023-04-11T22:09:47.557Z,2.70
2023-04-11T22:12:32.467Z,2.67
2023-04-11T22:15:18.131Z,3.70
2023-04-11T22:18:03.582Z,2.50
2023-04-11T22:20:48.562Z,2.57
2023-04-11T22:23:34.211Z,2.93
2023-04-11T22:26:26.061Z,2.87
2023-04-11T22:29:12.052Z,2.70
2023-04-11T22:31:59.444Z,2.60
2023-04-11T22:34:45.294Z,2.33
2023-04-11T22:37:30.299Z,2.53
2023-04-11T22:40:21.909Z,2.50
2023-04-11T22:43:07.653Z,2.90
2023-04-11T22:45:53.193Z,2.57
2023-04-11T22:48:38.267Z,2.43
2023-04-11T22:51:24.112Z,2.50
2023-04-11T22:54:09.576Z,2.57
2023-04-11T22:56:57.907Z,3.83
2023-04-11T22:59:42.839Z,2.27
2023-04-11T23:02:31.598Z,2.60
2023-04-11T23:05:17.080Z,2.90
2023-04-11T23:08:02.002Z,2.80
2023-04-11T23:10:47.495Z,2.40
2023-04-11T23:13:32.501Z,2.17
2023-04-11T23:16:18.170Z,2.37
2023-04-11T23:19:03.899Z,2.53
2023-04-11T23:21:49.627Z,2.87
2023-04-11T23:24:35.326Z,2.40
2023-04-11T23:27:21.337Z,2.10
2023-04-11T23:30:07.433Z,3.13
2023-04-11T23:32:53.916Z,2.50
2023-04-11T23:35:39.060Z,2.67
2023-04-11T23:38:23.938Z,2.10
2023-04-11T23:41:09.470Z,2.40
2023-04-11T23:43:54.294Z,2.20
2023-04-11T23:46:39.373Z,2.33
2023-04-11T23:49:24.225Z,2.00
2023-04-11T23:52:11.013Z,2.93
2023-04-11T23:54:56.736Z,2.60
2023-04-11T23:57:41.993Z,2.33
